Haines Airport
PAHN : now visible

Airfield :











YOU CAN JOIN US ON...

 
LOGIN :

Register | Disclaimer

   EN    FR    IT 

 









Legend :    VFR   Marginal VFR   IFR   Intensive IFR   Very Intensive IFR
Visi :
Ceiling :
>= 8 km
>= 3000ft
5 to 8 km
1000 to 3000 ft
1500m to 5 km
500 to 1000 ft
800 to 1500m
200 to 500 ft
< 800m
< 200 ft
Symbols :   Thunderstorms  Fog  Heavy snow  Heavy precipitations  Wind > 20 kt






- Airport Elevation : 15 ft
- IATA code : HNS


PAHN - Haines

CURRENT METAR :
  • 251754Z AUTO 11009G19KT 080V150 10SM BKN090 11/06 A2989 RMK SLP125 60000 T01110056 10122 20089 58002 TSNO VIA AUTODIAL

EXPIRED METARs :
  • 251654Z AUTO 10011G17KT 10SM FEW019 12/06 A2990 RMK SLP128 T01170056 TSNO VIA AUTODIAL
  • 251554Z AUTO 10009G17KT 10SM BKN017 11/06 A2990 RMK SLP128 T01060056 TSNO VIA AUTODIAL

TAF PAHN
Valid from the 25 at 18:00 until the 26 at 18:00 UTC


251730Z 2518/2618 11010G16KT P6SM VCSH SCT015 OVC040
FM260500 10005KT P6SM SCT015 BKN050
FM260900 10004KT P6SM BKN015 BKN060 AMD LTD TO CLD VIS AND WIND
PAZA FIR / North America



MET'MAP, your aeronautical weather chart ! - Copyright ORBIFLY December 2007 - Disclaimer

ORBIFLY MET'MAP TEAM :

Programming & Development : Alexandra Zaïnal
Concept & original design : Baudouin d'Aumeries
Assistance for programming : Marc-Olivier Méhu
Technical & hardware support : Manuel Goepfert

Contact : metmap@orbifly.com




SOURCES & CREDITS :

   NOAA       Earth
Advisory